Terminal Aerodrome Forecast
Issued by NWS

Home | Current Version | Previous Version | Text Only | Print | Product List | Glossary Off
Versions: 1 2 3 4 5 6 7 8 9 10 11 12 13 14

135
FTUS43 KTOP 041729
TAFFOE
TAF
KFOE 041729Z 0418/0518 26012G20KT P6SM SKC
     FM050000 30005KT P6SM SKC
     FM051200 15007KT P6SM SCT200=

USA.gov is the U.S. government's official web portal to all federal, state and local government web resources and services.